Terminal Aerodrome Forecast
Issued by NWS

Home | Current Version | Previous Version | Text Only | Print | Product List | Glossary On
Versions: 1 2 3 4 5 6 7 8 9 10 11 12 13 14 15 16 17
000
FTAK31 PAJN 031700
TAFAJN
TAF
PAJN 031736Z 0318/0418 09007KT P6SM -RA SCT004 BKN025 OVC035
      TEMPO 0318/0320 5SM -RA BR
     FM032100 25006KT P6SM VCSH SCT025 BKN035 OVC050
     FM040000 25006KT P6SM SCT035 BKN050
     FM040500 VRB02KT P6SM BKN040
     FM040900 00000KT 1SM BR BKN003
     FM041500 VRB03KT P6SM BCFG FEW005 SCT025=

USA.gov is the U.S. government's official web portal to all federal, state and local government web resources and services.